createdAt,value
2016-10-19T19:30:56.719Z,21.40
2016-10-19T19:31:13.324Z,21.40
2016-10-19T19:32:16.100Z,21.40
2016-10-19T19:33:13.335Z,21.41
2016-10-19T19:34:13.357Z,21.42
2016-10-19T19:35:13.509Z,21.42
2016-10-19T19:36:13.838Z,21.44
2016-10-19T19:37:15.063Z,21.45
2016-10-19T19:38:13.360Z,21.43
2016-10-19T19:39:13.754Z,21.43
2016-10-19T19:40:13.169Z,21.44
2016-10-19T19:41:13.429Z,21.44
2016-10-19T19:42:11.272Z,21.44
2016-10-19T19:43:13.607Z,21.45
2016-10-19T19:44:13.293Z,21.46
2016-10-19T19:45:13.771Z,21.45
2016-10-19T19:46:13.303Z,21.46
2016-10-19T19:47:14.083Z,21.46
2016-10-19T19:48:13.641Z,21.46
2016-10-19T19:49:13.171Z,21.54
2016-10-19T19:50:11.367Z,21.46
2016-10-19T19:51:13.873Z,21.65
2016-10-19T19:52:12.987Z,21.51
2016-10-19T19:53:10.199Z,21.47
2016-10-19T19:54:13.603Z,21.47
2016-10-19T19:55:13.988Z,21.45
2016-10-19T19:56:13.726Z,21.46
2016-10-19T19:57:13.477Z,21.46
2016-10-19T19:58:14.054Z,21.98
2016-10-19T19:59:13.822Z,22.02
2016-10-19T20:00:18.960Z,22.07
2016-10-19T20:01:13.519Z,22.09
2016-10-19T20:02:14.007Z,22.09
2016-10-19T20:03:13.884Z,21.76
2016-10-19T20:04:14.565Z,21.56
2016-10-19T20:05:13.406Z,21.54
2016-10-19T20:06:12.967Z,21.51
2016-10-19T20:07:13.651Z,21.50
2016-10-19T20:08:13.318Z,21.50
2016-10-19T20:09:15.162Z,21.45
2016-10-19T20:10:14.003Z,21.44
2016-10-19T20:11:13.470Z,21.41
2016-10-19T20:12:14.576Z,21.39
2016-10-19T20:13:12.238Z,21.36
2016-10-19T20:14:14.054Z,21.33
2016-10-19T20:15:13.912Z,21.31
2016-10-19T20:16:13.623Z,21.32
2016-10-19T20:17:13.809Z,21.32
2016-10-19T20:18:13.712Z,21.33
2016-10-19T20:19:13.231Z,21.31
2016-10-19T20:20:13.048Z,21.28
2016-10-19T20:21:14.040Z,21.26
2016-10-19T20:22:35.243Z,21.24
2016-10-19T20:23:13.753Z,21.22
2016-10-19T20:24:13.438Z,21.21
2016-10-19T20:25:14.318Z,21.19
2016-10-19T20:26:13.393Z,21.18
2016-10-19T20:27:15.122Z,21.15
2016-10-19T20:28:14.242Z,21.14
2016-10-19T20:29:13.029Z,21.20
2016-10-19T20:30:13.078Z,21.14
2016-10-19T20:31:13.245Z,21.13
2016-10-19T20:32:12.843Z,21.14
2016-10-19T20:33:14.078Z,21.62
2016-10-19T20:34:20.178Z,21.66
2016-10-19T20:35:13.776Z,21.67
2016-10-19T20:36:11.668Z,21.67
2016-10-19T20:37:12.261Z,21.67
2016-10-19T20:38:14.336Z,21.68
2016-10-19T20:39:13.769Z,21.33
2016-10-19T20:40:13.935Z,21.16
2016-10-19T20:41:12.660Z,21.10
2016-10-19T20:42:13.296Z,21.09
2016-10-19T20:43:13.208Z,21.06
2016-10-19T20:44:13.380Z,21.08
2016-10-19T20:45:13.162Z,21.04
2016-10-19T20:46:13.064Z,21.02
2016-10-19T20:47:12.407Z,21.06
2016-10-19T20:48:11.051Z,21.01
2016-10-19T20:49:12.142Z,21.54
2016-10-19T20:50:12.547Z,21.57
2016-10-19T20:51:13.399Z,21.60
2016-10-19T20:52:13.072Z,21.61
2016-10-19T20:53:12.660Z,21.61
2016-10-19T20:54:11.805Z,21.26
2016-10-19T20:55:12.448Z,21.08
2016-10-19T20:56:14.201Z,21.04
2016-10-19T20:57:12.394Z,21.00
2016-10-19T20:58:13.218Z,20.98
2016-10-19T20:59:12.227Z,20.95
2016-10-19T21:00:12.326Z,20.95
2016-10-19T21:01:10.518Z,20.94
2016-10-19T21:02:12.406Z,21.45
2016-10-19T21:03:14.502Z,21.51
2016-10-19T21:04:12.976Z,21.01
2016-10-19T21:05:11.986Z,20.97
2016-10-19T21:06:12.025Z,20.94
2016-10-19T21:07:12.616Z,20.96
2016-10-19T21:08:11.962Z,20.95
2016-10-19T21:09:13.500Z,20.91
2016-10-19T21:10:14.433Z,20.91
2016-10-19T21:11:10.611Z,20.90
2016-10-19T21:12:13.682Z,20.90
2016-10-19T21:13:12.597Z,20.90
2016-10-19T21:14:13.054Z,20.90
2016-10-19T21:15:13.708Z,20.90
2016-10-19T21:16:14.484Z,20.90
2016-10-19T21:17:18.144Z,20.90
2016-10-19T21:18:12.449Z,20.89
2016-10-19T21:19:11.971Z,20.92
2016-10-19T21:20:13.777Z,20.88
2016-10-19T21:21:12.842Z,20.88
2016-10-19T21:22:13.221Z,20.88
2016-10-19T21:23:10.397Z,20.88
2016-10-19T21:24:14.951Z,20.88
2016-10-19T21:25:14.282Z,20.87
2016-10-19T21:26:12.427Z,20.87
2016-10-19T21:27:12.982Z,20.89
2016-10-19T21:28:12.678Z,20.86
2016-10-19T21:29:15.103Z,20.87
2016-10-19T21:30:14.053Z,20.90
2016-10-19T21:31:12.102Z,20.86
2016-10-19T21:32:13.176Z,20.85
2016-10-19T21:33:12.763Z,20.86
2016-10-19T21:34:13.924Z,20.84
2016-10-19T21:35:12.317Z,20.85
2016-10-19T21:36:13.599Z,20.85
2016-10-19T21:37:12.640Z,20.86
2016-10-19T21:38:12.838Z,20.85
2016-10-19T21:39:12.887Z,20.85
2016-10-19T21:40:12.828Z,20.85
2016-10-19T21:41:12.332Z,20.85
2016-10-19T21:42:12.513Z,20.85
2016-10-19T21:43:12.926Z,20.84
2016-10-19T21:44:12.731Z,20.83
2016-10-19T21:45:12.211Z,20.91
2016-10-19T21:46:12.684Z,20.84
2016-10-19T21:47:12.636Z,20.83
2016-10-19T21:48:12.303Z,20.82
2016-10-19T21:49:12.404Z,20.83
2016-10-19T21:50:15.654Z,20.83
2016-10-19T21:51:17.599Z,20.81
2016-10-19T21:52:12.280Z,20.83
2016-10-19T21:53:12.815Z,20.86
2016-10-19T21:54:13.553Z,20.83
2016-10-19T21:55:11.660Z,20.82
2016-10-19T21:56:12.336Z,20.82
2016-10-19T21:57:13.167Z,20.84
2016-10-19T21:58:12.230Z,20.83
2016-10-19T21:59:10.944Z,20.81
2016-10-19T22:00:13.485Z,21.34
2016-10-19T22:01:13.265Z,21.39
2016-10-19T22:02:12.976Z,21.42
2016-10-19T22:03:14.158Z,21.41
2016-10-19T22:04:13.225Z,21.44
2016-10-19T22:05:14.009Z,21.43
2016-10-19T22:06:13.150Z,21.19
2016-10-19T22:07:16.424Z,20.93
2016-10-19T22:08:11.945Z,20.86
2016-10-19T22:09:13.687Z,20.84
2016-10-19T22:10:12.614Z,20.83
2016-10-19T22:11:12.250Z,20.87
2016-10-19T22:12:14.850Z,20.82
2016-10-19T22:13:12.275Z,20.81
2016-10-19T22:14:13.581Z,20.80
2016-10-19T22:15:11.788Z,20.80
2016-10-19T22:16:13.916Z,20.80
2016-10-19T22:17:12.618Z,20.86
2016-10-19T22:18:12.200Z,20.81
2016-10-19T22:19:13.758Z,20.81
2016-10-19T22:20:14.379Z,20.82
2016-10-19T22:21:13.084Z,20.85
2016-10-19T22:22:13.747Z,20.82
2016-10-19T22:23:14.992Z,20.83
2016-10-19T22:24:12.988Z,20.82
2016-10-19T22:25:12.277Z,20.83
2016-10-19T22:26:12.616Z,20.83
2016-10-19T22:27:13.606Z,20.86
2016-10-19T22:28:18.593Z,20.83
2016-10-19T22:29:10.219Z,20.83
2016-10-19T22:30:12.586Z,20.83
2016-10-19T22:31:15.456Z,20.82
2016-10-19T22:32:13.516Z,20.83
2016-10-19T22:33:13.120Z,20.88
2016-10-19T22:34:14.691Z,20.82
2016-10-19T22:35:12.977Z,20.83
2016-10-19T22:36:13.726Z,20.83
2016-10-19T22:37:09.358Z,20.82
2016-10-19T22:38:13.937Z,20.82
2016-10-19T22:39:12.700Z,20.82
2016-10-19T22:40:11.620Z,20.82
2016-10-19T22:41:12.847Z,20.83
2016-10-19T22:42:12.928Z,20.82
2016-10-19T22:43:13.028Z,20.81
2016-10-19T22:44:12.698Z,20.82
2016-10-19T22:45:12.849Z,20.86
2016-10-19T22:46:12.618Z,20.82
2016-10-19T22:47:11.740Z,20.82
2016-10-19T22:48:13.663Z,20.82
2016-10-19T22:49:12.407Z,20.89
2016-10-19T22:50:13.460Z,20.81
2016-10-19T22:51:12.471Z,20.81
2016-10-19T22:52:12.555Z,20.82
2016-10-19T22:53:12.157Z,20.83
2016-10-19T22:54:19.755Z,20.81
2016-10-19T22:55:12.246Z,20.86
2016-10-19T22:56:15.771Z,20.81
2016-10-19T22:57:12.688Z,20.82
2016-10-19T22:58:12.910Z,20.82
2016-10-19T22:59:16.678Z,20.81
2016-10-19T23:00:12.533Z,20.81
2016-10-19T23:01:11.877Z,20.81
2016-10-19T23:02:12.618Z,20.81
2016-10-19T23:03:10.491Z,20.80
2016-10-19T23:04:10.443Z,20.81
2016-10-19T23:05:11.859Z,20.81
2016-10-19T23:06:11.954Z,20.81
2016-10-19T23:07:12.718Z,20.82
2016-10-19T23:08:12.029Z,20.81
2016-10-19T23:09:13.382Z,20.82
2016-10-19T23:10:12.394Z,20.80
2016-10-19T23:11:13.706Z,20.81
2016-10-19T23:12:11.707Z,20.80
2016-10-19T23:13:12.912Z,20.81
2016-10-19T23:14:11.879Z,20.80
2016-10-19T23:15:10.290Z,20.80
2016-10-19T23:16:12.361Z,20.80
2016-10-19T23:17:12.629Z,20.80
2016-10-19T23:18:11.546Z,20.81
2016-10-19T23:19:11.603Z,20.80
2016-10-19T23:20:13.549Z,20.79
2016-10-19T23:21:13.220Z,20.81
2016-10-19T23:22:13.424Z,20.80
2016-10-19T23:23:13.593Z,20.82
2016-10-19T23:24:13.605Z,21.31
2016-10-19T23:25:12.126Z,21.37
2016-10-19T23:26:12.343Z,21.40
2016-10-19T23:27:12.568Z,21.41
2016-10-19T23:28:12.686Z,21.08
2016-10-19T23:29:16.777Z,20.89
2016-10-19T23:30:14.910Z,20.85
2016-10-19T23:31:12.608Z,20.83
2016-10-19T23:32:12.212Z,20.89
2016-10-19T23:33:12.201Z,20.81
2016-10-19T23:34:12.977Z,20.81
2016-10-19T23:35:10.839Z,20.80
2016-10-19T23:36:18.284Z,20.80
2016-10-19T23:37:13.448Z,20.83
2016-10-19T23:38:12.290Z,20.79
2016-10-19T23:39:12.155Z,20.80
2016-10-19T23:40:12.178Z,20.80
2016-10-19T23:41:12.947Z,20.80
2016-10-19T23:42:09.249Z,20.79
2016-10-19T23:43:12.970Z,20.85
2016-10-19T23:44:10.360Z,20.79
2016-10-19T23:45:12.574Z,20.79
2016-10-19T23:46:12.039Z,20.79
2016-10-19T23:47:11.878Z,20.79
2016-10-19T23:48:11.883Z,20.79
2016-10-19T23:49:12.803Z,20.79
2016-10-19T23:50:12.406Z,20.79
2016-10-19T23:51:12.464Z,20.79
2016-10-19T23:52:13.027Z,20.82
2016-10-19T23:53:12.158Z,20.79
2016-10-19T23:54:12.715Z,20.86
2016-10-19T23:55:12.097Z,20.79
2016-10-19T23:56:12.000Z,20.78
2016-10-19T23:57:11.992Z,20.79
2016-10-19T23:58:12.992Z,20.79
2016-10-19T23:59:10.802Z,20.78
